createdAt,value
2018-01-10T00:00:39.176Z,19.65
2018-01-10T00:01:41.634Z,19.66
2018-01-10T00:02:44.094Z,19.65
2018-01-10T00:03:46.546Z,19.65
2018-01-10T00:04:49.002Z,19.65
2018-01-10T00:05:51.480Z,19.64
2018-01-10T00:06:53.942Z,19.63
2018-01-10T00:07:56.402Z,19.62
2018-01-10T00:08:58.872Z,19.61
2018-01-10T00:10:01.340Z,19.61
2018-01-10T00:11:03.812Z,19.60
2018-01-10T00:12:06.293Z,19.59
2018-01-10T00:13:08.785Z,19.58
2018-01-10T00:14:11.243Z,19.58
2018-01-10T00:15:13.709Z,19.58
2018-01-10T00:16:16.188Z,19.57
2018-01-10T00:17:18.645Z,19.57
2018-01-10T00:18:21.098Z,19.56
2018-01-10T00:19:23.572Z,19.55
2018-01-10T00:20:26.029Z,19.54
2018-01-10T00:21:28.487Z,19.54
2018-01-10T00:22:30.968Z,19.54
2018-01-10T00:23:33.430Z,19.53
2018-01-10T00:24:35.886Z,19.51
2018-01-10T00:25:38.360Z,19.51
2018-01-10T00:26:40.814Z,19.51
2018-01-10T00:27:43.291Z,19.51
2018-01-10T00:28:45.748Z,19.51
2018-01-10T00:29:48.216Z,19.52
2018-01-10T00:30:50.674Z,19.52
2018-01-10T00:31:53.145Z,19.52
2018-01-10T00:32:55.620Z,19.52
2018-01-10T00:33:58.092Z,19.52
2018-01-10T00:35:00.547Z,19.51
2018-01-10T00:36:03.016Z,19.50
2018-01-10T00:37:05.470Z,19.49
2018-01-10T00:38:07.922Z,19.48
2018-01-10T00:39:10.390Z,19.47
2018-01-10T00:40:12.865Z,19.47
2018-01-10T00:41:15.325Z,19.46
2018-01-10T00:42:17.782Z,19.45
2018-01-10T00:43:20.262Z,19.45
2018-01-10T00:44:22.720Z,19.44
2018-01-10T00:45:25.198Z,19.43
2018-01-10T00:46:27.653Z,19.42
2018-01-10T00:47:30.120Z,19.42
2018-01-10T00:48:32.592Z,19.41
2018-01-10T00:49:35.060Z,19.41
2018-01-10T00:50:37.538Z,19.40
2018-01-10T00:51:40.012Z,19.39
2018-01-10T00:52:42.494Z,19.39
2018-01-10T00:53:44.968Z,19.38
2018-01-10T00:54:47.426Z,19.36
2018-01-10T00:55:49.902Z,19.36
2018-01-10T00:56:52.360Z,19.34
2018-01-10T00:57:54.833Z,19.34
2018-01-10T00:58:57.303Z,19.33
2018-01-10T00:59:59.785Z,19.32
2018-01-10T01:01:02.268Z,19.32
2018-01-10T01:02:04.747Z,19.31
2018-01-10T01:03:07.216Z,19.31
2018-01-10T01:04:09.678Z,19.30
2018-01-10T01:05:12.146Z,19.30
2018-01-10T01:06:14.640Z,19.30
2018-01-10T01:07:17.099Z,19.30
2018-01-10T01:08:19.554Z,19.30
2018-01-10T01:09:22.028Z,19.30
2018-01-10T01:10:24.501Z,19.28
2018-01-10T01:11:26.977Z,19.29
2018-01-10T01:12:29.430Z,19.28
2018-01-10T01:13:31.900Z,19.28
2018-01-10T01:14:34.372Z,19.28
2018-01-10T01:15:36.826Z,19.27
2018-01-10T01:16:39.321Z,19.26
2018-01-10T01:17:41.797Z,19.27
2018-01-10T01:18:44.868Z,19.26
2018-01-10T01:19:47.367Z,19.26
2018-01-10T01:20:49.827Z,19.26
2018-01-10T01:21:52.302Z,19.26
2018-01-10T01:22:54.766Z,19.25
2018-01-10T01:23:57.236Z,19.25
2018-01-10T01:24:59.698Z,19.24
2018-01-10T01:26:02.155Z,19.24
2018-01-10T01:27:04.648Z,19.24
2018-01-10T01:28:07.111Z,19.23
2018-01-10T01:29:09.566Z,19.23
2018-01-10T01:30:12.041Z,19.22
2018-01-10T01:31:14.516Z,19.22
2018-01-10T01:32:16.994Z,19.21
2018-01-10T01:33:19.464Z,19.21
2018-01-10T01:34:21.935Z,19.20
2018-01-10T01:35:24.408Z,19.20
2018-01-10T01:36:26.883Z,19.21
2018-01-10T01:37:29.368Z,19.21
2018-01-10T01:38:31.827Z,19.21
2018-01-10T01:39:34.285Z,19.21
2018-01-10T01:40:36.738Z,19.21
2018-01-10T01:41:39.206Z,19.21
2018-01-10T01:42:41.686Z,19.20
2018-01-10T01:43:44.146Z,19.20
2018-01-10T01:44:46.606Z,19.20
2018-01-10T01:45:49.076Z,19.20
2018-01-10T01:46:51.549Z,19.19
2018-01-10T01:47:54.055Z,19.19
2018-01-10T01:48:56.528Z,19.18
2018-01-10T01:49:58.982Z,19.18
2018-01-10T01:51:01.456Z,19.17
2018-01-10T01:52:03.940Z,19.16
2018-01-10T01:53:06.432Z,19.16
2018-01-10T01:54:08.904Z,19.16
2018-01-10T01:55:11.381Z,19.15
2018-01-10T01:56:13.838Z,19.16
2018-01-10T01:57:16.311Z,19.15
2018-01-10T01:58:18.812Z,19.14
2018-01-10T01:59:21.295Z,19.13
2018-01-10T02:00:23.754Z,19.13
2018-01-10T02:01:26.211Z,19.13
2018-01-10T02:02:28.666Z,19.12
2018-01-10T02:03:31.138Z,19.11
2018-01-10T02:04:33.594Z,19.10
2018-01-10T02:05:36.046Z,19.10
2018-01-10T02:06:38.499Z,19.09
2018-01-10T02:07:40.969Z,19.09
2018-01-10T02:08:43.453Z,19.08
2018-01-10T02:09:45.932Z,19.08
2018-01-10T02:10:48.400Z,19.07
2018-01-10T02:11:50.872Z,19.06
2018-01-10T02:12:53.326Z,19.06
2018-01-10T02:13:55.820Z,19.06
2018-01-10T02:14:58.278Z,19.05
2018-01-10T02:16:00.734Z,19.04
2018-01-10T02:17:03.189Z,19.04
2018-01-10T02:18:05.692Z,19.04
2018-01-10T02:19:08.184Z,19.03
2018-01-10T02:20:10.660Z,19.02
2018-01-10T02:21:13.118Z,19.02
2018-01-10T02:22:15.577Z,19.01
2018-01-10T02:23:18.030Z,19.01
2018-01-10T02:24:20.510Z,19.01
2018-01-10T02:25:22.980Z,19.02
2018-01-10T02:26:25.434Z,19.00
2018-01-10T02:27:27.904Z,18.99
2018-01-10T02:28:30.377Z,18.99
2018-01-10T02:29:32.862Z,18.97
2018-01-10T02:30:35.340Z,18.97
2018-01-10T02:31:37.813Z,18.96
2018-01-10T02:32:40.290Z,18.94
2018-01-10T02:33:42.764Z,18.94
2018-01-10T02:34:45.237Z,18.92
2018-01-10T02:35:47.685Z,18.92
2018-01-10T02:36:50.146Z,18.91
2018-01-10T02:37:52.602Z,18.89
2018-01-10T02:38:55.075Z,18.89
2018-01-10T02:39:57.550Z,18.88
2018-01-10T02:41:00.021Z,18.88
2018-01-10T02:42:02.478Z,18.87
2018-01-10T02:43:04.953Z,18.87
2018-01-10T02:44:07.410Z,18.87
2018-01-10T02:45:09.895Z,18.87
2018-01-10T02:46:12.366Z,18.86
2018-01-10T02:47:14.822Z,18.87
2018-01-10T02:48:17.274Z,18.87
2018-01-10T02:49:19.733Z,18.87
2018-01-10T02:50:22.206Z,18.86
2018-01-10T02:51:24.657Z,18.86
2018-01-10T02:52:27.132Z,18.85
2018-01-10T02:53:29.586Z,18.85
2018-01-10T02:54:32.046Z,18.84
2018-01-10T02:55:34.543Z,18.84
2018-01-10T02:56:36.998Z,18.83
2018-01-10T02:57:39.450Z,18.81
2018-01-10T02:58:41.930Z,18.81
2018-01-10T02:59:44.405Z,18.79
2018-01-10T03:00:46.886Z,18.80
2018-01-10T03:01:49.341Z,18.79
2018-01-10T03:02:51.804Z,18.80
2018-01-10T03:03:54.311Z,18.79
2018-01-10T03:04:56.793Z,18.80
2018-01-10T03:05:59.274Z,18.80
2018-01-10T03:07:01.748Z,18.80
2018-01-10T03:08:04.202Z,18.80
2018-01-10T03:09:06.669Z,18.80
2018-01-10T03:10:09.121Z,18.78
2018-01-10T03:11:11.608Z,18.78
2018-01-10T03:12:14.082Z,18.78
2018-01-10T03:13:16.538Z,18.77
2018-01-10T03:14:18.994Z,18.78
2018-01-10T03:15:21.458Z,18.78
2018-01-10T03:16:23.962Z,18.78
2018-01-10T03:17:26.433Z,18.77
2018-01-10T03:18:28.899Z,18.76
2018-01-10T03:19:31.372Z,18.76
2018-01-10T03:20:33.849Z,18.75
2018-01-10T03:21:36.340Z,18.75
2018-01-10T03:22:38.810Z,18.74
2018-01-10T03:23:41.270Z,18.74
2018-01-10T03:24:43.723Z,18.73
2018-01-10T03:25:46.174Z,18.72
2018-01-10T03:26:48.670Z,18.72
2018-01-10T03:27:51.338Z,18.71
2018-01-10T03:28:53.810Z,18.70
2018-01-10T03:29:56.272Z,18.69
2018-01-10T03:30:58.748Z,18.69
2018-01-10T03:32:01.257Z,18.68
2018-01-10T03:33:03.710Z,18.67
2018-01-10T03:34:06.186Z,18.66
2018-01-10T03:35:08.656Z,18.66
2018-01-10T03:36:11.110Z,18.65
2018-01-10T03:37:13.603Z,18.65
2018-01-10T03:38:16.094Z,18.64
2018-01-10T03:39:18.570Z,18.64
2018-01-10T03:40:21.057Z,18.63
2018-01-10T03:41:23.529Z,18.61
2018-01-10T03:42:26.032Z,18.61
2018-01-10T03:43:28.504Z,18.61
2018-01-10T03:44:30.981Z,18.61
2018-01-10T03:45:33.452Z,18.60
2018-01-10T03:46:35.924Z,18.59
2018-01-10T03:47:38.416Z,18.59
2018-01-10T03:48:40.891Z,18.59
2018-01-10T03:49:43.348Z,18.58
2018-01-10T03:50:45.806Z,18.58
2018-01-10T03:51:48.276Z,18.57
2018-01-10T03:52:50.754Z,18.57
2018-01-10T03:53:53.229Z,18.56
2018-01-10T03:54:55.694Z,18.56
2018-01-10T03:55:58.164Z,18.55
2018-01-10T03:57:00.637Z,18.55
2018-01-10T03:58:03.124Z,18.56
2018-01-10T03:59:05.599Z,18.56
2018-01-10T04:00:08.217Z,18.56
2018-01-10T04:01:10.680Z,18.56
2018-01-10T04:02:13.152Z,18.57
2018-01-10T04:03:16.025Z,18.57
2018-01-10T04:04:18.482Z,18.57
2018-01-10T04:05:20.956Z,18.58
2018-01-10T04:06:23.436Z,18.58
2018-01-10T04:07:25.897Z,18.59
2018-01-10T04:08:28.403Z,18.58
2018-01-10T04:09:30.858Z,18.59
2018-01-10T04:10:33.332Z,18.59
2018-01-10T04:11:35.804Z,18.60
2018-01-10T04:12:38.272Z,18.60
2018-01-10T04:13:40.758Z,18.60
2018-01-10T04:14:43.224Z,18.59
2018-01-10T04:15:45.681Z,18.59
2018-01-10T04:16:48.152Z,18.59
2018-01-10T04:17:50.630Z,18.60
2018-01-10T04:18:53.105Z,18.59
2018-01-10T04:19:55.568Z,18.58
2018-01-10T04:20:58.023Z,18.59
2018-01-10T04:22:00.492Z,18.59
2018-01-10T04:23:02.950Z,18.59
2018-01-10T04:24:05.430Z,18.58
2018-01-10T04:25:07.899Z,18.58
2018-01-10T04:26:10.357Z,18.58
2018-01-10T04:27:12.833Z,18.58
2018-01-10T04:28:15.305Z,18.58
2018-01-10T04:29:17.802Z,18.58
2018-01-10T04:30:20.272Z,18.58
2018-01-10T04:31:22.725Z,18.58
2018-01-10T04:32:25.193Z,18.58
2018-01-10T04:33:27.649Z,18.58
2018-01-10T04:34:30.130Z,18.57
2018-01-10T04:35:32.604Z,18.57
2018-01-10T04:36:35.076Z,18.56
2018-01-10T04:37:37.534Z,18.55
2018-01-10T04:38:40.004Z,18.55
2018-01-10T04:39:42.481Z,18.54
2018-01-10T04:40:44.933Z,18.53
2018-01-10T04:41:47.390Z,18.53
2018-01-10T04:42:49.860Z,18.53
2018-01-10T04:43:52.396Z,18.52
2018-01-10T04:44:54.934Z,18.52
2018-01-10T04:45:57.362Z,18.52
2018-01-10T04:46:59.822Z,18.51
2018-01-10T04:48:02.278Z,18.51
2018-01-10T04:49:04.733Z,18.51
2018-01-10T04:50:07.225Z,18.50
2018-01-10T04:51:09.686Z,18.50
2018-01-10T04:52:12.148Z,18.50
2018-01-10T04:53:14.651Z,18.49
2018-01-10T04:54:17.113Z,18.49
2018-01-10T04:55:19.591Z,18.48
2018-01-10T04:56:22.064Z,18.48
2018-01-10T04:57:24.517Z,18.47
2018-01-10T04:58:26.996Z,18.46
2018-01-10T04:59:29.468Z,18.46
2018-01-10T05:00:31.956Z,18.46
2018-01-10T05:01:34.406Z,18.45
2018-01-10T05:02:36.915Z,18.44
2018-01-10T05:03:39.370Z,18.44
2018-01-10T05:04:41.831Z,18.43
2018-01-10T05:05:44.302Z,18.43
2018-01-10T05:06:46.779Z,18.42
2018-01-10T05:07:49.233Z,18.42
2018-01-10T05:08:51.688Z,18.42
2018-01-10T05:09:54.158Z,18.41
2018-01-10T05:10:56.643Z,18.41
2018-01-10T05:11:59.094Z,18.40
2018-01-10T05:13:01.552Z,18.40
2018-01-10T05:14:04.006Z,18.40
2018-01-10T05:15:06.622Z,18.39
2018-01-10T05:16:09.101Z,18.40
2018-01-10T05:17:11.608Z,18.39
2018-01-10T05:18:14.049Z,18.39
2018-01-10T05:19:16.505Z,18.38
2018-01-10T05:20:18.963Z,18.38
2018-01-10T05:21:21.437Z,18.38
2018-01-10T05:22:23.886Z,18.37
2018-01-10T05:23:26.356Z,18.37
2018-01-10T05:24:28.833Z,18.37
2018-01-10T05:25:31.299Z,18.39
2018-01-10T05:26:33.772Z,18.40
2018-01-10T05:27:36.226Z,18.40
2018-01-10T05:28:38.692Z,18.38
2018-01-10T05:29:41.150Z,18.38
2018-01-10T05:30:43.606Z,18.38
2018-01-10T05:31:46.102Z,18.39
2018-01-10T05:32:48.575Z,18.38
2018-01-10T05:33:51.029Z,18.38
2018-01-10T05:34:53.504Z,18.38
2018-01-10T05:35:55.980Z,18.38
2018-01-10T05:36:58.458Z,18.38
2018-01-10T05:38:00.926Z,18.38
2018-01-10T05:39:03.383Z,18.38
2018-01-10T05:40:05.842Z,18.37
2018-01-10T05:41:08.316Z,18.38
2018-01-10T05:42:10.824Z,18.38
2018-01-10T05:43:13.309Z,18.38
2018-01-10T05:44:15.770Z,18.37
2018-01-10T05:45:18.230Z,18.36
2018-01-10T05:46:20.705Z,18.36
2018-01-10T05:47:23.192Z,18.36
2018-01-10T05:48:25.668Z,18.37
2018-01-10T05:49:28.123Z,18.37
2018-01-10T05:50:30.592Z,18.37
2018-01-10T05:51:33.046Z,18.37
2018-01-10T05:52:35.541Z,18.36
2018-01-10T05:53:38.028Z,18.37
2018-01-10T05:54:40.497Z,18.37
2018-01-10T05:55:42.973Z,18.37
2018-01-10T05:56:45.441Z,18.37
2018-01-10T05:57:47.918Z,18.36
2018-01-10T05:58:50.369Z,18.36
2018-01-10T05:59:52.927Z,18.37
2018-01-10T06:00:55.731Z,18.37
2018-01-10T06:01:58.221Z,18.36
2018-01-10T06:03:00.706Z,18.36
2018-01-10T06:04:03.200Z,18.36
2018-01-10T06:05:05.680Z,18.34
2018-01-10T06:06:08.138Z,18.34
2018-01-10T06:07:10.620Z,18.33
2018-01-10T06:08:13.078Z,18.35
2018-01-10T06:09:15.537Z,18.37
2018-01-10T06:10:17.994Z,18.41
2018-01-10T06:11:20.465Z,18.47
2018-01-10T06:12:22.923Z,18.62
2018-01-10T06:13:25.493Z,18.75
2018-01-10T06:14:27.950Z,18.91
2018-01-10T06:15:30.407Z,19.02
2018-01-10T06:16:32.906Z,19.18
2018-01-10T06:17:35.361Z,19.30
2018-01-10T06:18:37.817Z,19.54
2018-01-10T06:19:40.288Z,19.68
2018-01-10T06:20:42.742Z,19.78
2018-01-10T06:21:45.208Z,19.94
2018-01-10T06:22:47.665Z,20.06
2018-01-10T06:23:50.142Z,20.12
2018-01-10T06:24:52.620Z,20.23
2018-01-10T06:25:55.135Z,20.30
2018-01-10T06:26:57.636Z,20.36
2018-01-10T06:28:00.106Z,20.40
2018-01-10T06:29:02.568Z,20.42
2018-01-10T06:30:05.124Z,20.45
2018-01-10T06:31:07.596Z,20.44
2018-01-10T06:32:10.050Z,20.42
2018-01-10T06:33:12.530Z,20.46
2018-01-10T06:34:15.057Z,20.49
2018-01-10T06:35:17.532Z,20.47
2018-01-10T06:36:19.993Z,20.45
2018-01-10T06:37:22.468Z,20.45
2018-01-10T06:38:24.954Z,20.41
2018-01-10T06:39:27.412Z,20.39
2018-01-10T06:40:29.891Z,20.36
2018-01-10T06:41:32.377Z,20.33
2018-01-10T06:42:34.848Z,20.30
2018-01-10T06:43:37.306Z,20.27
2018-01-10T06:44:39.944Z,20.25
2018-01-10T06:45:42.419Z,20.24
2018-01-10T06:46:44.883Z,20.21
2018-01-10T06:47:47.360Z,20.18
2018-01-10T06:48:49.832Z,20.15
2018-01-10T06:49:52.286Z,20.10
2018-01-10T06:50:54.760Z,20.03
2018-01-10T06:51:57.234Z,19.96
2018-01-10T06:52:59.722Z,19.89
2018-01-10T06:54:02.182Z,19.84
2018-01-10T06:55:04.652Z,19.77
2018-01-10T06:56:07.131Z,19.72
2018-01-10T06:57:09.620Z,19.69
2018-01-10T06:58:12.097Z,19.63
2018-01-10T06:59:14.550Z,19.59
2018-01-10T07:00:17.008Z,19.55
2018-01-10T07:01:19.484Z,19.49
2018-01-10T07:02:21.962Z,19.45
2018-01-10T07:03:24.484Z,19.40
2018-01-10T07:04:26.950Z,19.36
2018-01-10T07:05:29.406Z,19.31
2018-01-10T07:06:31.876Z,19.28
2018-01-10T07:07:34.352Z,19.26
2018-01-10T07:08:36.806Z,19.23
2018-01-10T07:09:39.261Z,19.20
2018-01-10T07:10:41.738Z,19.18
2018-01-10T07:11:44.208Z,19.15
2018-01-10T07:12:46.680Z,19.12
2018-01-10T07:13:49.133Z,19.10
2018-01-10T07:14:51.608Z,19.08
2018-01-10T07:15:54.078Z,19.06
2018-01-10T07:16:56.565Z,19.04
2018-01-10T07:17:59.022Z,19.02
2018-01-10T07:19:01.492Z,18.99
2018-01-10T07:20:03.968Z,18.98
2018-01-10T07:21:06.451Z,18.96
2018-01-10T07:22:08.931Z,18.95
2018-01-10T07:23:11.386Z,18.92
2018-01-10T07:24:13.856Z,18.90
2018-01-10T07:25:16.333Z,18.90
2018-01-10T07:26:18.808Z,18.88
2018-01-10T07:27:21.280Z,18.87
2018-01-10T07:28:23.738Z,18.84
2018-01-10T07:29:26.208Z,18.83
2018-01-10T07:30:28.704Z,18.81
2018-01-10T07:31:31.162Z,18.79
2018-01-10T07:32:33.621Z,18.76
2018-01-10T07:33:36.166Z,18.74
2018-01-10T07:34:38.598Z,18.72
2018-01-10T07:35:41.100Z,18.71
2018-01-10T07:36:43.596Z,18.68
2018-01-10T07:37:46.060Z,18.66
2018-01-10T07:38:48.518Z,18.64
2018-01-10T07:39:50.988Z,18.62
2018-01-10T07:40:53.463Z,18.61
2018-01-10T07:41:55.934Z,18.59
2018-01-10T07:42:58.405Z,18.58
2018-01-10T07:44:00.888Z,18.57
2018-01-10T07:45:03.342Z,18.54
2018-01-10T07:46:05.832Z,18.53
2018-01-10T07:47:08.299Z,18.52
2018-01-10T07:48:10.801Z,18.50
2018-01-10T07:49:13.250Z,18.49
2018-01-10T07:50:15.718Z,18.47
2018-01-10T07:51:18.247Z,18.44
2018-01-10T07:52:20.706Z,18.44
2018-01-10T07:53:23.166Z,18.42
2018-01-10T07:54:25.641Z,18.41
2018-01-10T07:55:28.103Z,18.40
2018-01-10T07:56:30.597Z,18.39
2018-01-10T07:57:33.050Z,18.38
2018-01-10T07:58:35.514Z,18.37
2018-01-10T07:59:37.992Z,18.36
2018-01-10T08:00:40.450Z,18.35
2018-01-10T08:01:42.930Z,18.34
2018-01-10T08:02:45.382Z,18.32
2018-01-10T08:03:47.842Z,18.32
2018-01-10T08:04:50.318Z,18.31
2018-01-10T08:05:52.777Z,18.30
2018-01-10T08:06:55.254Z,18.29
2018-01-10T08:07:57.710Z,18.29
2018-01-10T08:09:00.166Z,18.27
2018-01-10T08:10:02.640Z,18.27
2018-01-10T08:11:05.124Z,18.26
2018-01-10T08:12:07.610Z,18.26
2018-01-10T08:13:10.066Z,18.24
2018-01-10T08:14:12.536Z,18.23
2018-01-10T08:15:15.008Z,18.22
2018-01-10T08:16:17.467Z,18.21
2018-01-10T08:17:19.952Z,18.20
2018-01-10T08:18:22.409Z,18.18
2018-01-10T08:19:24.872Z,18.17
2018-01-10T08:20:27.331Z,18.16
2018-01-10T08:21:29.797Z,18.15
2018-01-10T08:22:32.286Z,18.15
2018-01-10T08:23:34.764Z,18.13
2018-01-10T08:24:37.274Z,18.12
2018-01-10T08:25:39.746Z,18.11
2018-01-10T08:26:42.216Z,18.10
2018-01-10T08:27:44.707Z,18.08
2018-01-10T08:28:47.180Z,18.07
2018-01-10T08:29:49.656Z,18.06
2018-01-10T08:30:52.110Z,18.05
2018-01-10T08:31:55.204Z,18.05
2018-01-10T08:32:57.700Z,18.04
2018-01-10T08:34:00.164Z,18.03
2018-01-10T08:35:02.671Z,18.03
2018-01-10T08:36:05.130Z,18.02
2018-01-10T08:37:07.590Z,18.02
2018-01-10T08:38:10.088Z,18.01
2018-01-10T08:39:12.561Z,18.01
2018-01-10T08:40:15.018Z,17.97
2018-01-10T08:41:17.478Z,17.90
2018-01-10T08:42:19.952Z,17.81
2018-01-10T08:43:22.434Z,17.67
2018-01-10T08:44:24.902Z,17.52
2018-01-10T08:45:27.376Z,17.33
2018-01-10T08:46:29.850Z,17.28
2018-01-10T08:47:32.318Z,17.13
2018-01-10T08:48:34.909Z,17.07
2018-01-10T08:49:37.381Z,17.05
2018-01-10T08:50:39.872Z,17.05
2018-01-10T08:51:42.338Z,17.05
2018-01-10T08:52:44.820Z,17.01
2018-01-10T08:53:47.333Z,17.02
2018-01-10T08:54:49.803Z,17.05
2018-01-10T08:55:52.266Z,17.09
2018-01-10T08:56:54.750Z,17.14
2018-01-10T08:57:57.232Z,17.20
2018-01-10T08:58:59.776Z,17.25
2018-01-10T09:00:02.242Z,17.30
2018-01-10T09:01:04.712Z,17.36
2018-01-10T09:02:07.178Z,17.40
2018-01-10T09:03:09.661Z,17.44
2018-01-10T09:04:12.158Z,17.48
2018-01-10T09:05:14.668Z,17.52
2018-01-10T09:06:17.134Z,17.55
2018-01-10T09:07:19.628Z,17.59
2018-01-10T09:08:22.108Z,17.61
2018-01-10T09:09:24.597Z,17.63
2018-01-10T09:10:27.080Z,17.65
2018-01-10T09:11:29.560Z,17.67
2018-01-10T09:12:32.040Z,17.69
2018-01-10T09:13:34.524Z,17.70
2018-01-10T09:14:37.028Z,17.71
2018-01-10T09:15:39.512Z,17.73
2018-01-10T09:16:42.000Z,17.73
2018-01-10T09:17:44.460Z,17.75
2018-01-10T09:18:46.928Z,17.75
2018-01-10T09:19:49.432Z,17.76
2018-01-10T09:20:51.925Z,17.77
2018-01-10T09:21:54.390Z,17.77
2018-01-10T09:22:56.866Z,17.78
2018-01-10T09:23:59.344Z,17.78
2018-01-10T09:25:01.826Z,17.79
2018-01-10T09:26:04.310Z,17.79
2018-01-10T09:27:06.796Z,17.79
2018-01-10T09:28:09.272Z,17.81
2018-01-10T09:29:11.760Z,17.82
2018-01-10T09:30:14.478Z,17.82
2018-01-10T09:31:16.945Z,17.81
2018-01-10T09:32:19.410Z,17.82
2018-01-10T09:33:21.892Z,17.81
2018-01-10T09:34:24.358Z,17.82
2018-01-10T09:35:26.864Z,17.83
2018-01-10T09:36:29.330Z,17.83
2018-01-10T09:37:31.794Z,17.83
2018-01-10T09:38:34.258Z,17.83
2018-01-10T09:39:36.754Z,17.84
2018-01-10T09:40:39.252Z,17.84
2018-01-10T09:41:41.742Z,17.84
2018-01-10T09:42:44.212Z,17.84
2018-01-10T09:43:46.688Z,17.84
2018-01-10T09:44:49.160Z,17.84
2018-01-10T09:45:51.636Z,17.85
2018-01-10T09:46:54.106Z,17.85
2018-01-10T09:47:56.584Z,17.85
2018-01-10T09:48:59.047Z,17.85
2018-01-10T09:50:01.514Z,17.85
2018-01-10T09:51:03.997Z,17.85
2018-01-10T09:52:06.476Z,17.85
2018-01-10T09:53:08.938Z,17.85
2018-01-10T09:54:11.402Z,17.85
2018-01-10T09:55:13.889Z,17.86
2018-01-10T09:56:16.359Z,17.85
2018-01-10T09:57:18.836Z,17.86
2018-01-10T09:58:21.322Z,17.85
2018-01-10T09:59:23.805Z,17.85
2018-01-10T10:00:26.293Z,17.85
2018-01-10T10:01:28.745Z,17.86
2018-01-10T10:02:31.222Z,17.86
2018-01-10T10:03:33.687Z,17.86
2018-01-10T10:04:36.151Z,17.86
2018-01-10T10:05:38.610Z,17.85
2018-01-10T10:06:41.080Z,17.86
2018-01-10T10:07:43.552Z,17.86
2018-01-10T10:08:46.028Z,17.86
2018-01-10T10:09:48.538Z,17.86
2018-01-10T10:10:50.999Z,17.85
2018-01-10T10:11:53.476Z,17.86
2018-01-10T10:12:55.981Z,17.86
2018-01-10T10:13:58.439Z,17.85
2018-01-10T10:15:00.899Z,17.85
2018-01-10T10:16:03.362Z,17.85
2018-01-10T10:17:05.921Z,17.85
2018-01-10T10:18:08.392Z,17.84
2018-01-10T10:19:10.872Z,17.85
2018-01-10T10:20:13.356Z,17.85
2018-01-10T10:21:15.837Z,17.85
2018-01-10T10:22:18.316Z,17.84
2018-01-10T10:23:20.784Z,17.85
2018-01-10T10:24:23.264Z,17.84
2018-01-10T10:25:25.735Z,17.85
2018-01-10T10:26:28.198Z,17.84
2018-01-10T10:27:31.098Z,17.84
2018-01-10T10:28:33.580Z,17.84
2018-01-10T10:29:36.072Z,17.84
2018-01-10T10:30:38.546Z,17.83
2018-01-10T10:31:41.020Z,17.83
2018-01-10T10:32:43.942Z,17.84
2018-01-10T10:33:46.682Z,17.83
2018-01-10T10:34:49.160Z,17.83
2018-01-10T10:35:51.634Z,17.83
2018-01-10T10:36:54.104Z,17.83
2018-01-10T10:37:56.584Z,17.82
2018-01-10T10:38:59.038Z,17.82
2018-01-10T10:40:01.514Z,17.82
2018-01-10T10:41:03.982Z,17.82
2018-01-10T10:42:06.442Z,17.82
2018-01-10T10:43:08.898Z,17.82
2018-01-10T10:44:11.362Z,17.82
2018-01-10T10:45:13.832Z,17.82
2018-01-10T10:46:16.322Z,17.82
2018-01-10T10:47:18.778Z,17.81
2018-01-10T10:48:21.236Z,17.80
2018-01-10T10:49:23.694Z,17.80
2018-01-10T10:50:26.177Z,17.80
2018-01-10T10:51:28.661Z,17.80
2018-01-10T10:52:31.132Z,17.80
2018-01-10T10:53:33.606Z,17.80
2018-01-10T10:54:36.062Z,17.79
2018-01-10T10:55:38.526Z,17.80
2018-01-10T10:56:40.998Z,17.79
2018-01-10T10:57:44.378Z,17.79
2018-01-10T10:58:46.860Z,17.79
2018-01-10T10:59:49.326Z,17.79
2018-01-10T11:00:51.785Z,17.79
2018-01-10T11:01:54.252Z,17.79
2018-01-10T11:02:56.737Z,17.78
2018-01-10T11:03:59.380Z,17.79
2018-01-10T11:05:01.856Z,17.79
2018-01-10T11:06:04.322Z,17.79
2018-01-10T11:07:06.787Z,17.78
2018-01-10T11:08:09.267Z,17.78
2018-01-10T11:09:11.744Z,17.78
2018-01-10T11:10:14.229Z,17.79
2018-01-10T11:11:16.704Z,17.78
2018-01-10T11:12:19.184Z,17.79
2018-01-10T11:13:21.656Z,17.78
2018-01-10T11:14:24.136Z,17.78
2018-01-10T11:15:26.593Z,17.78
2018-01-10T11:16:29.077Z,17.77
2018-01-10T11:17:31.556Z,17.77
2018-01-10T11:18:34.044Z,17.77
2018-01-10T11:19:36.518Z,17.77
2018-01-10T11:20:38.986Z,17.77
2018-01-10T11:21:41.469Z,17.77
2018-01-10T11:22:43.962Z,17.77
2018-01-10T11:23:46.423Z,17.76
2018-01-10T11:24:48.908Z,17.76
2018-01-10T11:25:51.366Z,17.76
2018-01-10T11:26:53.829Z,17.75
2018-01-10T11:27:56.294Z,17.75
2018-01-10T11:28:58.749Z,17.76
2018-01-10T11:30:01.233Z,17.75
2018-01-10T11:31:03.704Z,17.75
2018-01-10T11:32:06.177Z,17.75
2018-01-10T11:33:08.658Z,17.75
2018-01-10T11:34:11.131Z,17.75
2018-01-10T11:35:13.612Z,17.75
2018-01-10T11:36:16.092Z,17.74
2018-01-10T11:37:18.558Z,17.75
2018-01-10T11:38:21.096Z,17.74
2018-01-10T11:39:23.551Z,17.73
2018-01-10T11:40:26.033Z,17.74
2018-01-10T11:41:28.512Z,17.73
2018-01-10T11:42:30.980Z,17.73
2018-01-10T11:43:33.439Z,17.73
2018-01-10T11:44:35.896Z,17.73
2018-01-10T11:45:38.341Z,17.73
2018-01-10T11:46:40.798Z,17.72
2018-01-10T11:47:43.250Z,17.71
2018-01-10T11:48:45.740Z,17.70
2018-01-10T11:49:48.222Z,17.70
2018-01-10T11:50:50.696Z,17.70
2018-01-10T11:51:53.172Z,17.71
2018-01-10T11:52:55.635Z,17.75
2018-01-10T11:53:58.096Z,17.79
2018-01-10T11:55:00.574Z,17.87
2018-01-10T11:56:03.040Z,17.96
2018-01-10T11:57:05.513Z,18.06
2018-01-10T11:58:07.997Z,18.18
2018-01-10T11:59:10.476Z,18.31
2018-01-10T12:00:12.936Z,18.44
2018-01-10T12:01:15.424Z,18.59
2018-01-10T12:02:17.885Z,18.73
2018-01-10T12:03:20.342Z,18.86
2018-01-10T12:04:22.818Z,18.95
2018-01-10T12:05:25.290Z,19.07
2018-01-10T12:06:27.752Z,19.19
2018-01-10T12:07:30.228Z,19.27
2018-01-10T12:08:32.697Z,19.32
2018-01-10T12:09:35.157Z,19.37
2018-01-10T12:10:37.631Z,19.38
2018-01-10T12:11:40.109Z,19.47
2018-01-10T12:12:42.565Z,19.46
2018-01-10T12:13:45.032Z,19.45
2018-01-10T12:14:47.500Z,19.43
2018-01-10T12:15:49.958Z,19.46
2018-01-10T12:16:52.410Z,19.46
2018-01-10T12:17:54.866Z,19.49
2018-01-10T12:18:57.332Z,19.53
2018-01-10T12:19:59.786Z,19.59
2018-01-10T12:21:02.290Z,19.64
2018-01-10T12:22:04.723Z,19.62
2018-01-10T12:23:07.188Z,19.64
2018-01-10T12:24:09.842Z,19.47
2018-01-10T12:25:12.294Z,19.31
2018-01-10T12:26:14.746Z,19.09
2018-01-10T12:27:17.226Z,18.96
2018-01-10T12:28:19.682Z,18.89
2018-01-10T12:29:22.138Z,18.86
2018-01-10T12:30:24.616Z,18.83
2018-01-10T12:31:27.087Z,18.81
2018-01-10T12:32:29.542Z,18.80
2018-01-10T12:33:32.185Z,18.82
2018-01-10T12:34:34.670Z,18.77
2018-01-10T12:35:37.150Z,18.78
2018-01-10T12:36:39.624Z,18.82
2018-01-10T12:37:42.082Z,18.88
2018-01-10T12:38:44.714Z,18.87
2018-01-10T12:39:47.175Z,18.91
2018-01-10T12:40:49.651Z,18.98
2018-01-10T12:41:52.147Z,19.02
2018-01-10T12:42:54.608Z,19.03
2018-01-10T12:43:57.098Z,19.02
2018-01-10T12:44:59.555Z,19.02
2018-01-10T12:46:02.282Z,19.02
2018-01-10T12:47:04.825Z,19.03
2018-01-10T12:48:07.325Z,19.03
2018-01-10T12:49:09.778Z,19.02
2018-01-10T12:50:12.279Z,19.01
2018-01-10T12:51:14.790Z,19.03
2018-01-10T12:52:17.248Z,19.02
2018-01-10T12:53:19.997Z,18.98
2018-01-10T12:54:22.846Z,18.99
2018-01-10T12:55:25.313Z,19.04
2018-01-10T12:56:27.781Z,19.13
2018-01-10T12:57:30.470Z,19.26
2018-01-10T12:58:32.949Z,19.42
2018-01-10T12:59:35.416Z,19.56
2018-01-10T13:00:37.950Z,19.66
2018-01-10T13:01:40.414Z,19.79
2018-01-10T13:02:42.901Z,19.91
2018-01-10T13:03:45.417Z,19.99
2018-01-10T13:04:47.875Z,20.03
2018-01-10T13:05:50.541Z,20.06
2018-01-10T13:06:53.025Z,20.07
2018-01-10T13:07:55.517Z,20.11
2018-01-10T13:08:57.988Z,20.12
2018-01-10T13:10:00.456Z,20.14
2018-01-10T13:11:02.915Z,20.17
2018-01-10T13:12:05.435Z,20.25
2018-01-10T13:13:07.905Z,20.35
2018-01-10T13:14:10.358Z,20.45
2018-01-10T13:15:12.830Z,20.52
2018-01-10T13:16:15.290Z,20.56
2018-01-10T13:17:17.984Z,20.59
2018-01-10T13:18:20.480Z,20.64
2018-01-10T13:19:22.973Z,20.65
2018-01-10T13:20:25.460Z,20.65
2018-01-10T13:21:27.915Z,20.63
2018-01-10T13:22:30.379Z,20.62
2018-01-10T13:23:32.832Z,20.61
2018-01-10T13:24:35.287Z,20.59